»·PEaware :: DAL5837 KSLC-KASE

DAL5837 :: KSLC-KASE

FLIGHT INFORMATION

Flight Status: Arrived
Operator:
Delta Air Lines
More flights by this operator :: More flights under this callsign
Pilot: John M. (9732)
Aircraft: CANADAIR CL-600 CRJ-700
(CRJ7)
More flights by this aircraft type
Origin: KSLC Salt Lake City Intl
United States
Destination: KASE Aspen-Pitkin Co/Sardy
United States
More flights between these airports :: More routes between these airports
Route: +TRUEL DBL
File this flight plan on PilotEdge
Remarks: Delta Virtual Airlines
Altitude:
(Current/Filed)
23,000ft
Speed:
(Current/Filed)
450kts
Departed: 26-Oct-20 04:11 PM
Arrived: 26-Oct-20 05:16 PM
Distance/Time
Traveled:
253nm/1:05
Distance/Time
To Go:
Arrived

Flight Plot

Page will automatically refresh every two minutes.

Flight plan parsing failed; only flown route is shown


Map Options




Map Legend


Flown Route
Filed Route
Departure Airport
Arrival Airport
Navaid (VOR, NDB)
Fix

Horizontal Profiles

Position Reports

Time Latitude Longitude Heading Altitude Ground
Speed
26-Oct-20 15:50 40.784975 -111.978840 0 4234ft 0kts
26-Oct-20 15:51 40.784975 -111.978840 0 4234ft 0kts
26-Oct-20 15:52 40.784975 -111.978840 0 4234ft 0kts
26-Oct-20 15:53 40.784975 -111.978840 0 4234ft 0kts
26-Oct-20 15:54 40.784975 -111.978840 0 4234ft 0kts
26-Oct-20 15:55 40.784975 -111.978840 0 4234ft 0kts
26-Oct-20 15:56 40.784939 -111.978840 0 4234ft 1kts
26-Oct-20 15:57 40.784434 -111.978840 0 4234ft 0kts
26-Oct-20 15:58 40.784434 -111.978840 0 4234ft 0kts
26-Oct-20 15:59 40.784434 -111.978840 0 4234ft 0kts
26-Oct-20 16:00 40.784434 -111.978840 0 4234ft 0kts
26-Oct-20 16:01 40.784680 -111.978598 86 4234ft 4kts
26-Oct-20 16:02 40.784069 -111.977883 124 4234ft 1kts
26-Oct-20 16:03 40.784042 -111.977131 86 4234ft 0kts
26-Oct-20 16:04 40.783944 -111.976361 146 4234ft 4kts
26-Oct-20 16:06 40.782181 -111.976076 174 4234ft 8kts
26-Oct-20 16:07 40.779050 -111.975706 174 4234ft 12kts
26-Oct-20 16:08 40.775923 -111.975327 175 4234ft 8kts
26-Oct-20 16:09 40.774678 -111.975011 144 4234ft 6kts
26-Oct-20 16:10 40.774975 -111.973224 16 4234ft 4kts
26-Oct-20 16:11 40.790587 -111.975158 352 4326ft 165kts
26-Oct-20 16:12 40.836823 -112.000722 307 6560ft 192kts
26-Oct-20 16:13 40.868524 -112.060776 306 9271ft 208kts
26-Oct-20 16:14 40.900668 -112.127343 306 11844ft 226kts
26-Oct-20 16:15 40.934233 -112.203659 311 13838ft 262kts
26-Oct-20 16:16 40.986854 -112.182719 61 16169ft 260kts
26-Oct-20 16:17 41.015380 -112.085771 61 17926ft 297kts
26-Oct-20 16:18 41.049014 -111.982013 49 20140ft 308kts
26-Oct-20 16:19 41.091802 -111.878241 56 22472ft 327kts
26-Oct-20 16:20 41.124677 -111.757326 86 23302ft 419kts
26-Oct-20 16:20 41.053694 -111.651275 151 23298ft 516kts
26-Oct-20 16:22 40.925140 -111.546047 128 23286ft 438kts
26-Oct-20 16:23 40.831734 -111.442632 131 23276ft 445kts
26-Oct-20 16:24 40.773841 -111.313040 97 23252ft 409kts
26-Oct-20 16:25 40.740159 -111.167292 94 23244ft 418kts
26-Oct-20 16:25 40.713250 -111.044501 95 23248ft 420kts
26-Oct-20 16:27 40.674498 -110.875211 96 23235ft 422kts
26-Oct-20 16:27 40.646039 -110.751923 96 23238ft 423kts
26-Oct-20 16:29 40.605730 -110.578676 97 23246ft 423kts
26-Oct-20 16:29 40.576853 -110.455436 97 23258ft 423kts
26-Oct-20 16:30 40.540655 -110.308220 98 23261ft 423kts
26-Oct-20 16:31 40.511855 -110.159730 93 23270ft 416kts
26-Oct-20 16:32 40.485439 -110.011715 94 23275ft 417kts
26-Oct-20 16:33 40.456767 -109.863593 95 23273ft 417kts
26-Oct-20 16:34 40.428542 -109.715956 95 23268ft 417kts
26-Oct-20 16:35 40.400152 -109.567622 95 23264ft 419kts
26-Oct-20 16:36 40.371341 -109.419579 96 23263ft 419kts
26-Oct-20 16:37 40.342382 -109.271994 97 23491ft 414kts
26-Oct-20 16:38 40.314003 -109.131568 97 24427ft 387kts
26-Oct-20 16:39 40.286347 -108.997643 96 25228ft 375kts
26-Oct-20 16:40 40.260817 -108.863767 97 25271ft 384kts
26-Oct-20 16:41 40.233615 -108.726611 98 25270ft 395kts
26-Oct-20 16:42 40.204905 -108.585617 100 25270ft 405kts
26-Oct-20 16:43 40.175006 -108.441835 101 25264ft 415kts
26-Oct-20 16:44 40.137757 -108.297741 123 25254ft 428kts
26-Oct-20 16:45 40.048842 -108.196507 120 23937ft 419kts
26-Oct-20 16:46 39.988144 -108.068631 119 22440ft 409kts
26-Oct-20 16:47 39.930463 -107.944205 119 21070ft 393kts
26-Oct-20 16:48 39.873624 -107.819837 119 20070ft 403kts
26-Oct-20 16:49 39.816017 -107.693304 119 19275ft 406kts
26-Oct-20 16:50 39.759422 -107.567824 119 19183ft 397kts
26-Oct-20 16:51 39.724019 -107.437339 96 19195ft 381kts
26-Oct-20 16:52 39.692123 -107.309324 116 19152ft 369kts
26-Oct-20 16:53 39.631586 -107.205098 131 19152ft 358kts
26-Oct-20 16:54 39.566930 -107.102772 131 17908ft 373kts
26-Oct-20 16:55 39.502425 -106.997501 130 16379ft 361kts
26-Oct-20 16:56 39.440152 -106.902936 150 14240ft 325kts
26-Oct-20 16:57 39.365664 -106.886828 174 13299ft 253kts
26-Oct-20 16:58 39.311094 -106.880998 175 11978ft 158kts
26-Oct-20 16:59 39.268411 -106.878576 178 9821ft 177kts
26-Oct-20 17:00 39.221189 -106.866753 168 8944ft 156kts
26-Oct-20 17:01 39.225732 -106.885936 28 10103ft 198kts
26-Oct-20 17:02 39.269171 -106.928661 308 11315ft 246kts
26-Oct-20 17:03 39.311870 -107.004504 303 12117ft 262kts
26-Oct-20 17:04 39.358554 -107.072303 338 12976ft 251kts
26-Oct-20 17:05 39.423035 -107.105975 337 13724ft 255kts
26-Oct-20 17:06 39.493119 -107.142136 338 13764ft 285kts
26-Oct-20 17:07 39.551919 -107.108633 88 13775ft 260kts
26-Oct-20 17:08 39.519725 -107.032989 122 13801ft 222kts
26-Oct-20 17:09 39.488918 -106.971413 122 13805ft 194kts
26-Oct-20 17:10 39.456160 -106.914143 128 13805ft 201kts
26-Oct-20 17:11 39.406396 -106.889062 173 13304ft 212kts
26-Oct-20 17:12 39.347713 -106.880441 173 12635ft 212kts
26-Oct-20 17:13 39.293786 -106.881253 188 10584ft 191kts
26-Oct-20 17:14 39.245014 -106.879226 158 8193ft 152kts
26-Oct-20 17:15 39.220943 -106.867777 159 7845ft 29kts
26-Oct-20 17:16 39.218895 -106.866506 119 7845ft 0kts
26-Oct-20 17:17 39.218598 -106.865844 119 7845ft 7kts
26-Oct-20 17:18 39.219020 -106.865625 333 7845ft 2kts
26-Oct-20 17:19 39.219343 -106.865169 72 7845ft 0kts
26-Oct-20 17:20 39.219361 -106.865091 72 7845ft 0kts
26-Oct-20 17:21 39.219361 -106.865091 72 7845ft 0kts
26-Oct-20 17:22 39.219361 -106.865091 72 7845ft 0kts

Navigation Log

Ident Type
Flight plan parsing failed, navigation log unavailable